Time;durP1;ratioP1;P1;durP2;ratioP2;P2;SDS_P1;SDS_P2;PMS_P1;PMS_P2;Temp;Humidity;BMP_temperature;BMP_pressure;BME280_temperature;BME280_humidity;BME280_pressure;Samples;Min_cycle;Max_cycle;Signal;HPM_P1;HPM_P2
2021/06/29 00:03:01;;;;;;;11.32;2.95;;;;;;;26.26;57.68;100127.06;5137722;27;20463;-80
2021/06/29 00:05:59;;;;;;;9.82;2.90;;;;;;;26.24;56.78;100118.22;5116147;27;20973;-79
2021/06/29 00:09:00;;;;;;;9.85;2.83;;;;;;;26.24;56.08;100114.63;5184935;27;20430;-79
2021/06/29 00:11:58;;;;;;;5.75;2.22;;;;;;;26.22;55.57;100109.34;5184789;27;20474;-81
2021/06/29 00:14:58;;;;;;;12.85;3.05;;;;;;;26.27;54.98;100114.13;5184196;27;20404;-78
2021/06/29 00:18:02;;;;;;;8.73;2.58;;;;;;;26.24;54.24;100112.72;5124050;27;20412;-80
2021/06/29 00:20:44;;;;;;;12.18;2.50;;;;;;;26.08;55.29;100126.31;4164417;27;27088092;-78
2021/06/29 00:23:46;;;;;;;6.55;2.20;;;;;;;26.03;55.76;100126.19;5184876;27;20391;-79
2021/06/29 00:26:42;;;;;;;9.48;2.65;;;;;;;25.93;56.71;100135.06;5117045;27;20387;-81
2021/06/29 00:29:42;;;;;;;6.25;2.40;;;;;;;25.98;56.66;100150.84;5185423;27;20436;-80
2021/06/29 00:32:43;;;;;;;5.22;2.15;;;;;;;25.96;57.21;100148.34;5184855;27;20890;-81
2021/06/29 00:35:48;;;;;;;6.63;2.17;;;;;;;25.86;58.11;100145.34;5185219;27;20771;-80
2021/06/29 00:38:45;;;;;;;11.05;3.20;;;;;;;25.85;57.17;100147.25;5185013;27;20894;-79
2021/06/29 00:41:46;;;;;;;11.25;2.92;;;;;;;25.61;57.40;100145.56;5184874;27;20862;-81
2021/06/29 00:44:49;;;;;;;7.25;3.08;;;;;;;25.52;57.38;100159.91;5123665;27;20392;-81
2021/06/29 00:47:32;;;;;;;7.85;2.80;;;;;;;25.43;58.00;100150.31;4506996;27;18478287;-78
2021/06/29 00:50:29;;;;;;;6.35;2.72;;;;;;;25.53;57.61;100150.59;5185224;27;20402;-80
2021/06/29 00:53:31;;;;;;;6.72;2.90;;;;;;;25.48;57.79;100145.78;5179280;27;20437;-80
2021/06/29 00:56:28;;;;;;;9.55;2.50;;;;;;;25.56;57.55;100139.09;5184568;27;20383;-80
2021/06/29 00:59:31;;;;;;;8.73;2.83;;;;;;;25.60;56.81;100129.31;5181533;27;20783;-80
2021/06/29 01:02:33;;;;;;;7.95;2.80;;;;;;;25.60;56.57;100129.31;5185177;27;20418;-79
2021/06/29 01:05:45;;;;;;;10.32;3.38;;;;;;;25.42;56.46;100118.38;5141055;27;20411;-80
2021/06/29 01:08:59;;;;;;;9.40;3.05;;;;;;;25.29;56.78;100126.84;5140295;27;20374;-80
2021/06/29 01:11:56;;;;;;;11.73;3.60;;;;;;;25.25;56.91;100131.13;5183353;27;20429;-80
2021/06/29 01:14:35;;;;;;;11.30;3.27;;;;;;;25.26;56.61;100132.81;4259723;27;24091664;-80
2021/06/29 01:17:36;;;;;;;6.30;3.10;;;;;;;25.33;56.51;100128.06;5183395;27;21185;-80
2021/06/29 01:20:42;;;;;;;6.25;3.40;;;;;;;25.25;56.76;100137.47;5122450;27;20389;-81
2021/06/29 01:23:39;;;;;;;13.20;4.00;;;;;;;25.05;57.61;100126.78;5184468;27;20400;-78
2021/06/29 01:26:46;;;;;;;6.28;3.13;;;;;;;25.04;57.65;100138.00;5184382;27;20475;-79
2021/06/29 01:32:56;;;;;;;5.65;2.70;;;;;;;25.12;58.23;100145.91;5185070;27;20418;-80
2021/06/29 01:35:56;;;;;;;8.60;2.30;;;;;;;25.16;60.85;100139.72;5124388;27;20420;-81
2021/06/29 01:38:54;;;;;;;4.85;2.33;;;;;;;24.99;62.31;100137.84;5185267;27;20464;-80
2021/06/29 01:41:59;;;;;;;7.95;2.38;;;;;;;25.00;62.44;100140.38;5127482;27;20420;-80
2021/06/29 01:45:11;;;;;;;9.32;2.50;;;;;;;24.92;62.13;100134.38;5120325;27;20507;-80
2021/06/29 01:48:22;;;;;;;6.82;2.42;;;;;;;24.92;62.46;100140.69;5184883;27;20798;-79
2021/06/29 01:51:23;;;;;;;9.90;2.55;;;;;;;24.89;62.77;100140.31;5185177;27;20819;-78
2021/06/29 01:54:20;;;;;;;5.72;2.45;;;;;;;24.84;62.87;100140.19;5184699;27;20392;-80
2021/06/29 01:57:26;;;;;;;6.32;2.70;;;;;;;24.80;63.60;100130.75;5137939;27;20418;-81
2021/06/29 02:00:27;;;;;;;6.43;2.47;;;;;;;24.88;62.86;100133.16;5185002;27;20408;-81
2021/06/29 02:03:25;;;;;;;7.40;3.08;;;;;;;24.83;62.87;100138.53;5185222;27;20434;-81
2021/06/29 02:06:27;;;;;;;9.07;3.40;;;;;;;24.61;63.49;100151.88;5185158;27;20476;-80
2021/06/29 02:09:34;;;;;;;9.18;3.38;;;;;;;24.53;63.90;100143.94;5137516;27;20429;-82
2021/06/29 02:12:34;;;;;;;7.03;4.18;;;;;;;24.43;63.65;100141.75;5184939;27;20729;-80
2021/06/29 02:15:35;;;;;;;11.70;4.15;;;;;;;24.29;63.73;100129.25;5124435;27;20404;-80
2021/06/29 02:18:37;;;;;;;9.52;4.00;;;;;;;24.17;63.92;100133.00;5137483;27;20405;-81
2021/06/29 02:21:41;;;;;;;13.23;4.28;;;;;;;24.10;64.08;100134.94;5184512;27;20466;-79
2021/06/29 02:24:42;;;;;;;10.07;4.13;;;;;;;24.08;64.39;100137.94;5185158;27;20391;-80
2021/06/29 02:27:51;;;;;;;7.32;3.30;;;;;;;24.23;64.30;100135.66;5127493;27;20427;-81
2021/06/29 02:30:47;;;;;;;9.25;4.20;;;;;;;24.30;63.99;100132.81;5184990;27;20404;-78
2021/06/29 02:33:44;;;;;;;8.48;4.03;;;;;;;24.20;64.13;100136.09;5185088;27;20426;-80
2021/06/29 02:36:42;;;;;;;12.77;4.28;;;;;;;24.09;64.70;100123.16;5185388;27;20437;-81
2021/06/29 02:39:43;;;;;;;10.13;4.70;;;;;;;24.14;64.57;100131.53;5185100;27;20426;-80
2021/06/29 02:42:44;;;;;;;10.48;4.47;;;;;;;24.06;64.55;100118.09;5185025;27;20414;-76
2021/06/29 02:45:50;;;;;;;13.68;4.45;;;;;;;23.77;64.69;100116.94;5137951;27;20818;-81
2021/06/29 02:49:03;;;;;;;10.32;3.80;;;;;;;23.55;64.80;100107.44;5120715;27;20385;-79
2021/06/29 02:52:03;;;;;;;9.80;3.30;;;;;;;23.73;64.68;100112.09;5127086;27;20777;-81
2021/06/29 02:55:06;;;;;;;8.93;3.70;;;;;;;23.72;64.32;100111.28;5140849;27;20131;-78
2021/06/29 02:58:07;;;;;;;9.30;3.50;;;;;;;23.88;64.33;100102.47;5116793;27;20863;-80
2021/06/29 03:01:08;;;;;;;11.68;3.92;;;;;;;23.71;63.17;100104.09;5185144;27;20889;-80
2021/06/29 03:04:12;;;;;;;14.07;3.83;;;;;;;23.66;63.35;100111.31;5124066;27;20392;-80
2021/06/29 03:07:09;;;;;;;11.18;4.25;;;;;;;23.55;63.31;100106.59;5116746;27;20433;-80
2021/06/29 03:10:11;;;;;;;18.30;3.90;;;;;;;23.38;63.07;100106.28;5184932;27;20433;-80
2021/06/29 03:13:45;;;;;;;14.13;3.60;;;;;;;23.53;63.04;100108.72;5184993;27;20426;-80
2021/06/29 03:16:45;;;;;;;11.02;4.10;;;;;;;23.40;63.38;100095.97;5184972;27;20397;-80
2021/06/29 03:19:42;;;;;;;9.73;3.05;;;;;;;23.34;62.72;100080.38;5185316;27;20431;-78
2021/06/29 03:22:43;;;;;;;10.05;3.47;;;;;;;23.31;62.59;100089.03;5185260;27;20480;-80
2021/06/29 03:25:44;;;;;;;11.25;3.60;;;;;;;23.26;62.41;100091.63;5184956;27;20436;-77
2021/06/29 03:28:56;;;;;;;12.32;3.85;;;;;;;23.38;62.08;100100.81;5141190;27;20487;-77
2021/06/29 03:31:57;;;;;;;7.30;3.22;;;;;;;23.26;59.56;100100.69;5185186;27;20422;-81
2021/06/29 03:34:34;;;;;;;9.38;3.20;;;;;;;23.31;60.09;100100.00;4607018;27;15077385;-81
2021/06/29 03:37:38;;;;;;;6.95;3.00;;;;;;;23.54;60.49;100107.63;5123522;27;20925;-80
2021/06/29 03:40:46;;;;;;;7.93;3.95;;;;;;;23.36;60.82;100086.50;5141268;27;20383;-80
2021/06/29 03:43:33;;;;;;;10.83;4.00;;;;;;;23.16;61.19;100097.59;3955936;27;33157638;-81
2021/06/29 03:46:32;;;;;;;10.85;3.67;;;;;;;23.02;60.67;100100.66;5104883;27;20362;-75
2021/06/29 03:49:14;;;;;;;15.15;3.65;;;;;;;22.81;60.29;100098.28;4031058;27;30217212;-80
2021/06/29 03:52:12;;;;;;;14.25;3.65;;;;;;;22.77;59.47;100097.88;5185008;27;20886;-80
2021/06/29 03:55:10;;;;;;;5.65;3.22;;;;;;;22.96;59.15;100093.34;5185059;27;20889;-80
2021/06/29 03:58:03;;;;;;;11.57;3.45;;;;;;;23.06;58.78;100089.03;5119204;27;20487;-80
2021/06/29 04:01:12;;;;;;;7.53;3.45;;;;;;;23.21;58.24;100099.66;5127446;27;20428;-79
2021/06/29 04:04:12;;;;;;;8.80;3.78;;;;;;;23.28;58.60;100100.47;5141748;27;20407;-80
2021/06/29 04:07:12;;;;;;;17.13;3.67;;;;;;;23.37;57.74;100090.94;5124086;27;20404;-78
2021/06/29 04:10:10;;;;;;;16.58;3.90;;;;;;;23.39;58.23;100086.06;5179168;27;21133;-80
2021/06/29 04:13:12;;;;;;;15.38;3.67;;;;;;;23.56;58.38;100089.06;5136898;27;20379;-80
2021/06/29 04:16:09;;;;;;;11.38;3.78;;;;;;;23.46;58.47;100086.00;5184529;27;20438;-80
2021/06/29 04:19:06;;;;;;;10.13;3.97;;;;;;;23.61;58.51;100089.22;5185133;27;20446;-80
2021/06/29 04:22:08;;;;;;;9.35;3.70;;;;;;;23.80;57.75;100100.00;5184801;27;20402;-81
2021/06/29 04:25:06;;;;;;;11.40;3.33;;;;;;;23.79;58.03;100103.81;5184883;27;20375;-80
2021/06/29 04:28:04;;;;;;;9.10;2.97;;;;;;;24.01;55.90;100101.47;5183834;27;20861;-80
2021/06/29 04:31:05;;;;;;;6.43;2.83;;;;;;;24.26;54.86;100121.47;5183125;27;20468;-80
2021/06/29 04:34:05;;;;;;;9.85;2.83;;;;;;;24.37;53.09;100119.84;5183560;27;20412;-80
2021/06/29 04:37:09;;;;;;;12.95;3.05;;;;;;;24.52;52.45;100115.66;5121413;27;20437;-80
2021/06/29 04:39:51;;;;;;;9.57;3.00;;;;;;;24.76;51.44;100111.13;4177153;27;27025321;-80
2021/06/29 04:42:51;;;;;;;14.35;2.97;;;;;;;25.23;50.36;100118.47;5183934;27;20422;-77
2021/06/29 04:45:52;;;;;;;9.88;2.55;;;;;;;25.55;47.62;100118.19;5184425;27;20386;-80
2021/06/29 04:48:52;;;;;;;16.73;2.80;;;;;;;25.81;47.24;100109.47;5181968;27;20475;-80
2021/06/29 04:51:53;;;;;;;11.15;2.80;;;;;;;25.94;46.42;100106.50;5183344;27;20426;-80
2021/06/29 04:54:53;;;;;;;19.08;3.47;;;;;;;26.42;43.81;100109.78;5183667;27;20406;-80
2021/06/29 04:57:54;;;;;;;14.98;2.60;;;;;;;26.63;43.59;100100.03;5184127;27;20803;-80
2021/06/29 05:00:55;;;;;;;17.63;2.33;;;;;;;27.05;41.91;100095.06;5142853;27;20415;-81
2021/06/29 05:03:51;;;;;;;19.58;2.80;;;;;;;27.26;41.13;100096.28;5184649;27;20380;-81
2021/06/29 05:06:55;;;;;;;10.13;2.60;;;;;;;27.97;40.82;100109.28;5123523;27;20392;-80
2021/06/29 05:09:56;;;;;;;15.68;2.60;;;;;;;28.70;39.46;100118.06;5184779;27;20416;-80
2021/06/29 05:12:57;;;;;;;41.78;30.67;;;;;;;28.92;39.06;100096.75;5184832;27;20419;-81
2021/06/29 05:15:58;;;;;;;33.22;20.95;;;;;;;29.41;38.46;100100.28;5185070;27;20844;-80
2021/06/29 05:19:07;;;;;;;16.50;2.92;;;;;;;30.15;36.42;100095.56;5127201;27;20799;-80
2021/06/29 05:22:07;;;;;;;13.90;2.35;;;;;;;30.82;35.04;100095.59;5184666;27;20424;-81
2021/06/29 05:25:08;;;;;;;9.38;2.50;;;;;;;31.55;34.08;100099.06;5184801;27;20431;-80
2021/06/29 05:28:19;;;;;;;12.43;2.42;;;;;;;32.28;32.62;100097.56;5137722;27;20387;-81
2021/06/29 05:31:20;;;;;;;10.35;3.15;;;;;;;33.61;31.00;100096.53;5142721;27;20126;-79
2021/06/29 05:34:20;;;;;;;12.40;2.33;;;;;;;34.49;30.05;100083.06;5184586;27;20437;-79
2021/06/29 05:37:21;;;;;;;16.23;2.60;;;;;;;35.28;28.36;100082.25;5184531;27;20397;-78
2021/06/29 05:40:18;;;;;;;6.85;2.38;;;;;;;36.40;26.87;100079.91;5116250;27;21520;-79
2021/06/29 05:43:18;;;;;;;18.02;3.00;;;;;;;37.71;25.37;100074.06;5130951;27;20424;-80
2021/06/29 05:46:26;;;;;;;15.35;3.47;;;;;;;38.74;24.51;100066.09;5075364;27;20185;-81
2021/06/29 05:49:56;;;;;;;13.75;2.00;;;;;;;40.87;22.14;100077.19;5122636;27;20483;-80
2021/06/29 05:52:57;;;;;;;8.80;2.25;;;;;;;40.65;22.70;100088.75;5194367;27;20470;-79
2021/06/29 05:55:38;;;;;;;11.90;1.92;;;;;;;40.66;22.85;100085.59;4502907;27;18778871;-79
2021/06/29 05:58:39;;;;;;;10.40;2.45;;;;;;;41.38;22.39;100090.06;5188388;27;20910;-84
2021/06/29 06:01:43;;;;;;;11.30;2.20;;;;;;;41.71;21.48;100093.72;5126823;27;20447;-81
2021/06/29 06:04:44;;;;;;;7.68;1.90;;;;;;;42.80;20.60;100093.88;5193917;27;20434;-82
2021/06/29 06:07:54;;;;;;;9.65;1.65;;;;;;;44.56;18.07;100093.31;5146787;27;20413;-83
2021/06/29 06:10:56;;;;;;;8.52;2.25;;;;;;;45.10;17.92;100095.38;5194187;27;20477;-79
2021/06/29 06:13:56;;;;;;;5.43;1.98;;;;;;;44.71;18.92;100099.31;5193895;27;20895;-81
2021/06/29 06:16:57;;;;;;;8.02;1.75;;;;;;;44.77;18.94;100097.81;5185789;27;20858;-81
2021/06/29 06:19:57;;;;;;;9.32;1.90;;;;;;;45.11;18.90;100097.03;5185750;27;20399;-81
2021/06/29 06:22:54;;;;;;;17.67;2.15;;;;;;;44.63;18.61;100095.47;5123077;27;20484;-81
2021/06/29 06:25:51;;;;;;;9.40;1.92;;;;;;;44.62;19.00;100096.66;5192577;27;20441;-81
2021/06/29 06:28:52;;;;;;;9.75;1.95;;;;;;;45.94;17.73;100099.16;5179232;27;20442;-80
2021/06/29 06:32:09;;;;;;;11.45;2.05;;;;;;;46.41;17.52;100096.81;5129431;27;20391;-80
2021/06/29 06:35:07;;;;;;;9.48;1.50;;;;;;;46.43;17.90;100100.09;5191596;27;20386;-80
2021/06/29 06:38:04;;;;;;;9.32;1.73;;;;;;;46.14;18.11;100102.81;5120002;27;20492;-83
2021/06/29 06:41:01;;;;;;;14.02;2.40;;;;;;;46.91;18.55;100097.63;5121804;27;20430;-78
2021/06/29 06:43:45;;;;;;;15.25;2.47;;;;;;;47.19;18.70;100094.34;4444546;27;17909693;-83
2021/06/29 06:46:58;;;;;;;15.23;1.90;;;;;;;47.90;17.33;100084.69;5148362;27;20425;-80
2021/06/29 06:49:58;;;;;;;11.27;2.25;;;;;;;46.77;18.94;100091.69;5176922;27;20434;-80
2021/06/29 06:52:59;;;;;;;7.50;2.05;;;;;;;45.64;18.41;100092.50;5193960;27;20442;-81
2021/06/29 06:55:56;;;;;;;13.98;2.35;;;;;;;47.50;17.26;100097.63;5177715;27;20479;-80
2021/06/29 06:58:57;;;;;;;13.95;1.70;;;;;;;46.20;17.89;100089.94;5191222;27;20393;-81
2021/06/29 07:01:58;;;;;;;8.98;1.60;;;;;;;47.40;17.36;100091.78;5191869;27;20443;-80
2021/06/29 07:04:58;;;;;;;9.70;1.55;;;;;;;48.25;17.56;100088.69;5193167;27;20404;-81
2021/06/29 07:07:55;;;;;;;9.57;2.05;;;;;;;48.22;16.71;100092.31;5175621;27;20439;-83
2021/06/29 07:10:57;;;;;;;4.90;1.98;;;;;;;47.74;16.61;100104.81;5193060;27;20821;-82
2021/06/29 07:13:59;;;;;;;12.93;2.25;;;;;;;47.82;16.01;100108.59;5193737;27;20386;-81
2021/06/29 07:16:59;;;;;;;10.07;1.70;;;;;;;47.49;16.91;100100.84;5194071;27;20446;-82
2021/06/29 07:20:00;;;;;;;12.45;1.85;;;;;;;48.27;16.45;100109.03;5193608;27;20736;-79
2021/06/29 07:22:43;;;;;;;8.23;1.70;;;;;;;50.37;15.64;100114.63;5070464;28;20382;-81
2021/06/29 07:25:28;;;;;;;8.38;1.70;;;;;;;49.86;15.62;100121.44;5110852;27;20380;-82
2021/06/29 07:28:13;;;;;;;4.72;1.73;;;;;;;50.57;15.29;100125.25;5065641;28;20749;-80
2021/06/29 07:31:06;;;;;;;9.27;2.22;;;;;;;51.52;15.05;100129.13;5110640;27;20463;-80
2021/06/29 07:33:51;;;;;;;6.97;1.80;;;;;;;50.35;15.60;100122.78;5070256;28;20391;-80
2021/06/29 07:36:31;;;;;;;10.32;2.40;;;;;;;51.08;14.37;100123.97;5070679;28;20401;-82
2021/06/29 07:39:11;;;;;;;8.40;2.35;;;;;;;52.55;13.90;100122.34;5104836;27;20395;-80
2021/06/29 07:42:08;;;;;;;8.05;2.00;;;;;;;49.39;15.66;100115.97;5110609;27;20383;-80
2021/06/29 07:44:48;;;;;;;15.90;2.78;;;;;;;48.55;16.62;100119.88;5110938;27;20904;-80
2021/06/29 07:47:28;;;;;;;9.80;2.10;;;;;;;48.32;16.80;100119.28;5069783;28;20421;-80
2021/06/29 07:50:12;;;;;;;17.55;3.47;;;;;;;48.87;16.22;100108.72;5110820;27;20390;-82
2021/06/29 07:52:59;;;;;;;14.80;2.30;;;;;;;46.27;18.27;100115.63;5070199;28;20412;-80
2021/06/29 07:55:43;;;;;;;14.77;2.17;;;;;;;44.63;19.39;100103.97;5151890;27;20448;-82
2021/06/29 07:58:28;;;;;;;9.38;2.20;;;;;;;43.84;20.95;100102.28;5070179;28;20382;-82
2021/06/29 08:01:15;;;;;;;10.55;1.92;;;;;;;43.91;20.34;100105.28;5070291;28;20389;-82
2021/06/29 08:03:56;;;;;;;12.98;2.00;;;;;;;43.20;20.54;100093.91;5163935;27;20893;-80
2021/06/29 08:06:40;;;;;;;13.82;2.28;;;;;;;41.77;22.19;100091.53;5069886;28;20395;-80
2021/06/29 08:09:25;;;;;;;37.28;4.63;;;;;;;42.57;22.52;100095.53;5069523;28;20390;-80
2021/06/29 08:12:05;;;;;;;21.23;3.20;;;;;;;42.02;23.10;100096.03;5070186;28;20404;-80
2021/06/29 08:14:45;;;;;;;10.77;2.10;;;;;;;41.69;23.57;100093.22;5051268;28;20399;-80
2021/06/29 08:17:26;;;;;;;8.55;1.88;;;;;;;38.87;26.74;100086.75;5070171;28;20397;-82
2021/06/29 08:20:11;;;;;;;11.07;2.40;;;;;;;36.80;29.58;100091.38;5111400;27;20384;-82
2021/06/29 08:22:53;;;;;;;16.92;2.45;;;;;;;35.84;30.14;100087.72;5111001;27;20399;-81
2021/06/29 08:25:39;;;;;;;14.55;2.50;;;;;;;35.70;29.63;100081.28;5068194;28;20123;-80
2021/06/29 08:28:22;;;;;;;10.98;2.20;;;;;;;35.39;30.92;100071.72;5068023;28;20391;-81
2021/06/29 08:31:08;;;;;;;14.27;2.20;;;;;;;35.74;30.06;100073.91;5068853;28;20745;-82
2021/06/29 08:33:49;;;;;;;8.40;2.65;;;;;;;34.56;31.74;100076.03;5089679;27;20459;-81
2021/06/29 08:36:40;;;;;;;12.98;2.63;;;;;;;35.01;31.25;100074.50;5131622;27;20728;-81
2021/06/29 08:39:24;;;;;;;14.05;2.20;;;;;;;34.96;30.63;100071.81;5068860;28;20397;-81
2021/06/29 08:42:10;;;;;;;9.30;1.95;;;;;;;34.85;30.44;100066.69;5110502;27;20388;-80
2021/06/29 08:44:49;;;;;;;11.73;2.13;;;;;;;34.75;30.40;100077.97;5110315;27;20399;-82
2021/06/29 08:47:34;;;;;;;9.10;1.90;;;;;;;35.11;29.65;100071.59;5070248;28;20382;-82
2021/06/29 08:50:19;;;;;;;16.77;2.33;;;;;;;34.89;30.62;100071.34;5070471;28;20401;-81
2021/06/29 08:53:06;;;;;;;9.80;2.25;;;;;;;34.29;31.22;100081.34;5070385;28;20386;-82
2021/06/29 08:55:48;;;;;;;13.55;2.45;;;;;;;34.38;30.56;100076.78;5070211;28;20930;-82
2021/06/29 08:58:34;;;;;;;12.30;2.63;;;;;;;34.21;30.48;100064.44;5069500;28;20405;-79
2021/06/29 09:01:17;;;;;;;11.77;2.60;;;;;;;34.49;30.53;100063.53;5070376;28;20386;-81
2021/06/29 09:03:58;;;;;;;11.55;2.20;;;;;;;34.27;30.93;100074.44;5110717;27;20396;-80
2021/06/29 09:06:43;;;;;;;12.63;2.88;;;;;;;34.19;30.92;100070.34;5110781;27;20408;-80
2021/06/29 09:09:29;;;;;;;12.45;1.73;;;;;;;34.81;31.03;100069.25;5110862;27;20712;-81
2021/06/29 09:12:09;;;;;;;18.08;2.58;;;;;;;35.10;29.69;100071.91;5069954;28;20896;-81
2021/06/29 09:14:52;;;;;;;14.30;2.40;;;;;;;34.90;29.71;100075.81;5070213;28;20382;-81
2021/06/29 09:17:40;;;;;;;17.77;2.47;;;;;;;34.84;29.01;100071.44;5110929;27;20386;-82
2021/06/29 09:20:38;;;;;;;11.80;1.98;;;;;;;34.72;29.07;100073.00;5069188;28;20398;-82
2021/06/29 09:23:34;;;;;;;13.70;2.50;;;;;;;35.00;29.45;100075.66;5110943;27;20383;-80
2021/06/29 09:26:29;;;;;;;12.48;2.80;;;;;;;35.35;29.23;100079.88;5110933;27;20384;-81
2021/06/29 09:29:14;;;;;;;12.52;2.33;;;;;;;35.70;29.69;100081.28;5070381;28;20392;-81
2021/06/29 09:31:57;;;;;;;14.48;2.50;;;;;;;35.70;28.89;100086.84;5070056;28;20386;-80
2021/06/29 09:34:41;;;;;;;10.48;2.47;;;;;;;35.73;28.47;100075.88;5070469;28;20884;-81
2021/06/29 09:37:35;;;;;;;13.98;2.60;;;;;;;35.95;28.90;100077.19;5173002;27;20383;-82
2021/06/29 09:40:19;;;;;;;14.70;2.50;;;;;;;35.98;28.73;100080.16;5111510;27;20380;-80
2021/06/29 09:43:15;;;;;;;18.15;3.53;;;;;;;35.16;28.90;100074.31;5110680;27;20738;-80
2021/06/29 09:45:56;;;;;;;14.48;2.75;;;;;;;35.20;29.28;100071.75;5070357;28;20386;-80
2021/06/29 09:48:50;;;;;;;14.75;2.63;;;;;;;35.30;29.43;100071.59;5102815;27;20390;-82
2021/06/29 09:51:32;;;;;;;13.77;2.70;;;;;;;35.22;29.54;100069.50;5070348;28;20401;-82
2021/06/29 09:54:17;;;;;;;15.80;2.63;;;;;;;34.76;30.29;100063.75;5110736;27;20132;-81
2021/06/29 09:56:57;;;;;;;18.20;2.65;;;;;;;34.83;30.03;100060.59;5070531;28;20387;-81
2021/06/29 09:59:43;;;;;;;16.50;2.90;;;;;;;34.44;30.62;100063.63;5130671;27;20394;-82
2021/06/29 10:02:30;;;;;;;15.25;3.33;;;;;;;34.42;30.18;100051.91;5070463;28;20404;-83
2021/06/29 10:05:22;;;;;;;11.80;2.80;;;;;;;34.64;29.58;100057.81;5070526;28;20885;-83
2021/06/29 10:08:06;;;;;;;19.38;3.63;;;;;;;34.83;29.55;100055.84;5070071;28;20393;-83
2021/06/29 10:10:46;;;;;;;15.38;2.90;;;;;;;34.99;29.68;100043.31;5070527;28;20439;-82
2021/06/29 10:13:39;;;;;;;10.75;2.35;;;;;;;35.18;28.68;100040.53;5069880;28;20391;-82
2021/06/29 10:16:44;;;;;;;15.63;3.25;;;;;;;35.18;28.42;100046.91;5069334;28;20408;-82
2021/06/29 10:22:18;;;;;;;17.00;2.83;;;;;;;35.27;28.37;100044.28;5069868;28;20395;-80
2021/06/29 10:24:57;;;;;;;17.85;3.08;;;;;;;35.13;28.98;100046.19;5070694;28;20390;-82
2021/06/29 10:27:38;;;;;;;10.98;2.20;;;;;;;35.39;28.39;100057.75;5070444;28;20912;-80
2021/06/29 10:30:28;;;;;;;20.33;2.95;;;;;;;35.56;28.00;100044.91;5070192;28;20390;-81
2021/06/29 10:33:14;;;;;;;13.57;2.75;;;;;;;35.76;28.39;100050.13;5070527;28;20383;-81
2021/06/29 10:35:54;;;;;;;22.05;2.80;;;;;;;35.92;28.00;100051.47;5110932;27;20410;-81
2021/06/29 10:38:38;;;;;;;14.38;2.95;;;;;;;36.25;27.49;100065.41;5070308;28;20383;-82
2021/06/29 10:41:21;;;;;;;16.48;3.10;;;;;;;36.35;25.79;100048.41;5069793;28;20404;-82
2021/06/29 10:44:11;;;;;;;16.50;3.05;;;;;;;36.54;26.11;100058.38;5110674;27;20133;-82
2021/06/29 10:46:53;;;;;;;15.52;3.65;;;;;;;36.74;25.98;100056.28;5070596;28;20382;-79
2021/06/29 10:49:42;;;;;;;18.80;3.90;;;;;;;36.72;25.50;100048.19;5070258;28;20133;-83
2021/06/29 10:52:26;;;;;;;14.40;3.58;;;;;;;36.13;26.50;100045.53;5131622;27;20116;-81
2021/06/29 10:55:19;;;;;;;15.27;3.50;;;;;;;36.39;27.02;100049.47;5070429;28;20387;-81
2021/06/29 10:58:03;;;;;;;11.35;3.08;;;;;;;36.71;26.68;100037.31;5110654;27;20402;-82
2021/06/29 11:00:47;;;;;;;15.80;3.20;;;;;;;36.23;26.49;100034.97;5090618;27;20377;-81
2021/06/29 11:03:38;;;;;;;11.88;3.33;;;;;;;35.81;27.01;100026.84;5110994;27;20426;-81
2021/06/29 11:06:46;;;;;;;13.65;3.20;;;;;;;35.74;27.26;100032.84;5111159;27;20388;-80
2021/06/29 11:09:52;;;;;;;15.73;3.17;;;;;;;35.13;27.78;100021.09;5070274;28;20386;-82
2021/06/29 11:12:53;;;;;;;16.58;2.95;;;;;;;34.73;28.54;100018.88;5070537;28;20405;-79
2021/06/29 11:15:57;;;;;;;16.52;3.10;;;;;;;34.83;29.09;100016.78;5070487;28;20064;-79
2021/06/29 11:18:45;;;;;;;21.95;3.80;;;;;;;34.81;28.25;100013.47;5110807;27;20382;-80
2021/06/29 11:21:26;;;;;;;12.93;2.83;;;;;;;34.47;29.05;100016.44;5110907;27;20916;-81
2021/06/29 11:24:39;;;;;;;27.73;3.10;;;;;;;34.67;28.85;100027.34;5110649;27;20380;-81
2021/06/29 11:28:00;;;;;;;18.75;3.13;;;;;;;34.73;28.34;100016.09;5110886;27;20384;-81
2021/06/29 11:30:50;;;;;;;20.25;2.70;;;;;;;34.63;27.34;100014.28;5111015;27;20887;-81
2021/06/29 11:33:42;;;;;;;19.42;3.10;;;;;;;34.57;27.34;100019.09;5110948;27;20393;-80
2021/06/29 11:36:26;;;;;;;25.20;2.92;;;;;;;34.46;27.03;100023.16;5111269;27;20390;-80
2021/06/29 11:39:16;;;;;;;16.13;3.38;;;;;;;34.37;26.84;100015.75;5111117;27;20392;-81
2021/06/29 11:42:19;;;;;;;16.33;3.03;;;;;;;34.52;27.11;100016.34;5091176;27;20397;-81
2021/06/29 11:45:05;;;;;;;24.13;3.35;;;;;;;34.08;27.13;99998.28;5111134;27;20392;-80
2021/06/29 11:47:50;;;;;;;14.45;2.47;;;;;;;34.23;27.70;100000.88;5110098;27;20399;-80
2021/06/29 11:50:42;;;;;;;18.35;2.75;;;;;;;34.32;27.57;99993.53;5109461;27;20805;-80
2021/06/29 11:53:23;;;;;;;13.68;2.78;;;;;;;34.15;26.51;99982.06;5108834;27;20201;-80
2021/06/29 11:56:13;;;;;;;23.83;3.05;;;;;;;34.14;27.88;99980.38;5108761;27;20380;-80
2021/06/29 11:58:56;;;;;;;13.95;2.58;;;;;;;34.31;27.29;99980.72;5108675;27;20404;-80
2021/06/29 12:01:35;;;;;;;12.82;2.50;;;;;;;34.40;27.68;99965.78;5108904;27;20396;-80
2021/06/29 12:04:19;;;;;;;18.58;3.08;;;;;;;34.43;26.41;99962.41;5108674;27;20386;-80
2021/06/29 12:07:06;;;;;;;19.38;2.85;;;;;;;34.39;26.63;99963.31;5130480;27;20458;-80
2021/06/29 12:09:50;;;;;;;14.52;2.60;;;;;;;34.53;26.67;99961.44;5111063;27;20380;-79
2021/06/29 12:12:35;;;;;;;12.30;2.38;;;;;;;34.25;27.08;99970.75;5069857;28;20401;-80
2021/06/29 12:15:25;;;;;;;10.60;2.30;;;;;;;34.29;27.63;99958.72;5104470;27;20391;-83
2021/06/29 12:18:12;;;;;;;12.32;2.20;;;;;;;34.27;27.43;99969.31;5173751;27;20548;-83
2021/06/29 12:20:59;;;;;;;14.45;2.95;;;;;;;34.38;27.36;99958.88;5106376;27;20630;-83
2021/06/29 12:23:46;;;;;;;14.85;2.47;;;;;;;34.28;27.81;99956.22;5109050;27;20407;-81
2021/06/29 12:26:31;;;;;;;11.73;2.13;;;;;;;34.25;28.27;99962.38;5111307;27;20123;-83
2021/06/29 12:29:11;;;;;;;13.82;2.00;;;;;;;34.40;27.86;99962.16;5111196;27;20812;-82
2021/06/29 12:31:55;;;;;;;11.23;2.20;;;;;;;34.18;27.52;99953.56;5106269;27;21477;-81
2021/06/29 12:34:39;;;;;;;13.43;2.50;;;;;;;34.35;28.30;99951.94;5102766;27;20408;-82
2021/06/29 12:37:20;;;;;;;11.35;3.15;;;;;;;34.18;27.85;99934.91;5068892;28;20398;-82
2021/06/29 12:40:07;;;;;;;15.70;2.22;;;;;;;34.20;28.00;99942.94;5110842;27;20392;-80
2021/06/29 12:42:47;;;;;;;9.50;2.00;;;;;;;34.17;28.07;99949.13;5068405;28;20386;-81
2021/06/29 12:45:31;;;;;;;9.50;1.85;;;;;;;34.13;28.38;99936.91;5069177;27;20395;-84
2021/06/29 12:48:17;;;;;;;14.07;2.40;;;;;;;33.99;28.71;99934.84;5110320;27;20380;-83
2021/06/29 12:51:04;;;;;;;12.68;2.60;;;;;;;34.03;28.07;99933.13;5070381;28;20404;-82
2021/06/29 12:54:10;;;;;;;12.70;2.20;;;;;;;34.12;28.39;99924.13;5068949;28;20413;-82
2021/06/29 12:56:57;;;;;;;11.02;2.05;;;;;;;33.79;28.83;99918.41;5110925;27;20390;-82
2021/06/29 12:59:45;;;;;;;8.38;2.10;;;;;;;33.64;29.08;99926.09;5130506;27;20127;-83
2021/06/29 13:02:30;;;;;;;12.60;2.08;;;;;;;33.62;29.86;99934.75;5070268;28;20574;-82
2021/06/29 13:05:22;;;;;;;7.07;2.10;;;;;;;33.71;29.10;99913.47;5100229;27;20389;-83
2021/06/29 13:08:24;;;;;;;8.68;2.15;;;;;;;33.75;28.68;99920.09;5069480;28;20391;-81
2021/06/29 13:11:15;;;;;;;10.27;2.38;;;;;;;33.83;29.52;99924.19;5070632;28;20387;-84
2021/06/29 13:14:16;;;;;;;10.10;2.70;;;;;;;33.71;30.03;99919.06;5052490;28;20416;-82
2021/06/29 13:17:13;;;;;;;13.05;2.42;;;;;;;33.60;30.24;99920.31;5110698;27;20396;-81
2021/06/29 13:20:11;;;;;;;10.10;3.13;;;;;;;33.83;29.95;99919.44;5124132;27;20408;-80
2021/06/29 13:23:01;;;;;;;12.93;1.88;;;;;;;33.79;29.80;99912.81;5130790;27;20329;-83
2021/06/29 13:25:45;;;;;;;7.40;1.90;;;;;;;33.78;29.95;99919.50;5069128;28;20421;-82
2021/06/29 13:28:28;;;;;;;9.85;2.17;;;;;;;33.81;30.44;99932.84;5108457;27;20394;-83
2021/06/29 13:31:09;;;;;;;6.30;1.90;;;;;;;33.66;30.70;99916.31;5070704;28;20399;-83